sensor_id;sensor_type;location;lat;lon;timestamp;P1;durP1;ratioP1;P2;durP2;ratioP2
12267;SDS011;6196;48.398;11.736;2023-07-29T00:01:37;4.03;;;3.37;;
12267;SDS011;6196;48.398;11.736;2023-07-29T00:04:07;6.60;;;3.77;;
12267;SDS011;6196;48.398;11.736;2023-07-29T00:06:35;5.23;;;3.53;;
12267;SDS011;6196;48.398;11.736;2023-07-29T00:09:03;4.60;;;3.73;;
12267;SDS011;6196;48.398;11.736;2023-07-29T00:11:30;5.43;;;3.67;;
12267;SDS011;6196;48.398;11.736;2023-07-29T00:13:59;4.90;;;3.27;;
12267;SDS011;6196;48.398;11.736;2023-07-29T00:16:27;8.13;;;3.87;;
12267;SDS011;6196;48.398;11.736;2023-07-29T00:18:54;5.53;;;3.13;;
12267;SDS011;6196;48.398;11.736;2023-07-29T00:21:21;4.00;;;3.47;;
12267;SDS011;6196;48.398;11.736;2023-07-29T00:23:48;5.77;;;4.07;;
12267;SDS011;6196;48.398;11.736;2023-07-29T00:26:15;5.53;;;3.43;;
12267;SDS011;6196;48.398;11.736;2023-07-29T00:28:42;5.43;;;3.83;;
12267;SDS011;6196;48.398;11.736;2023-07-29T00:31:09;4.17;;;3.53;;
12267;SDS011;6196;48.398;11.736;2023-07-29T00:33:37;4.90;;;3.23;;
12267;SDS011;6196;48.398;11.736;2023-07-29T00:36:04;5.30;;;3.33;;
12267;SDS011;6196;48.398;11.736;2023-07-29T00:38:31;3.83;;;3.30;;
12267;SDS011;6196;48.398;11.736;2023-07-29T00:40:57;5.67;;;3.50;;
12267;SDS011;6196;48.398;11.736;2023-07-29T00:43:26;4.10;;;3.70;;
12267;SDS011;6196;48.398;11.736;2023-07-29T00:45:53;4.17;;;3.67;;
12267;SDS011;6196;48.398;11.736;2023-07-29T00:48:20;4.40;;;3.53;;
12267;SDS011;6196;48.398;11.736;2023-07-29T00:50:47;4.70;;;3.37;;
12267;SDS011;6196;48.398;11.736;2023-07-29T00:53:14;6.50;;;3.43;;
12267;SDS011;6196;48.398;11.736;2023-07-29T00:55:42;4.83;;;3.50;;
12267;SDS011;6196;48.398;11.736;2023-07-29T00:58:09;6.63;;;3.67;;
12267;SDS011;6196;48.398;11.736;2023-07-29T01:00:36;5.23;;;3.27;;
12267;SDS011;6196;48.398;11.736;2023-07-29T01:03:04;5.27;;;3.50;;
12267;SDS011;6196;48.398;11.736;2023-07-29T01:05:34;4.47;;;3.20;;
12267;SDS011;6196;48.398;11.736;2023-07-29T01:08:36;5.57;;;3.13;;
12267;SDS011;6196;48.398;11.736;2023-07-29T01:11:18;7.63;;;3.27;;
12267;SDS011;6196;48.398;11.736;2023-07-29T01:14:04;6.87;;;3.63;;
12267;SDS011;6196;48.398;11.736;2023-07-29T01:16:57;4.27;;;3.07;;
12267;SDS011;6196;48.398;11.736;2023-07-29T01:22:34;4.30;;;3.30;;
12267;SDS011;6196;48.398;11.736;2023-07-29T01:25:03;5.20;;;3.63;;
12267;SDS011;6196;48.398;11.736;2023-07-29T01:27:30;5.20;;;3.30;;
12267;SDS011;6196;48.398;11.736;2023-07-29T01:29:58;6.33;;;3.43;;
12267;SDS011;6196;48.398;11.736;2023-07-29T01:32:28;5.00;;;3.03;;
12267;SDS011;6196;48.398;11.736;2023-07-29T01:37:48;3.30;;;3.00;;
12267;SDS011;6196;48.398;11.736;2023-07-29T01:40:19;3.60;;;3.13;;
12267;SDS011;6196;48.398;11.736;2023-07-29T01:42:50;4.60;;;3.20;;
12267;SDS011;6196;48.398;11.736;2023-07-29T01:45:17;5.67;;;3.50;;
12267;SDS011;6196;48.398;11.736;2023-07-29T01:47:44;4.87;;;3.30;;
12267;SDS011;6196;48.398;11.736;2023-07-29T01:50:11;4.67;;;3.20;;
12267;SDS011;6196;48.398;11.736;2023-07-29T01:52:38;4.03;;;3.20;;
12267;SDS011;6196;48.398;11.736;2023-07-29T01:55:05;4.83;;;3.83;;
12267;SDS011;6196;48.398;11.736;2023-07-29T01:57:33;3.30;;;3.00;;
12267;SDS011;6196;48.398;11.736;2023-07-29T02:00:00;3.47;;;3.17;;
12267;SDS011;6196;48.398;11.736;2023-07-29T02:02:27;3.40;;;3.10;;
12267;SDS011;6196;48.398;11.736;2023-07-29T02:04:54;3.63;;;2.80;;
12267;SDS011;6196;48.398;11.736;2023-07-29T02:07:22;4.73;;;3.30;;
12267;SDS011;6196;48.398;11.736;2023-07-29T02:09:49;4.57;;;3.30;;
12267;SDS011;6196;48.398;11.736;2023-07-29T02:12:16;5.20;;;3.30;;
12267;SDS011;6196;48.398;11.736;2023-07-29T02:14:43;4.23;;;3.30;;
12267;SDS011;6196;48.398;11.736;2023-07-29T02:17:10;6.57;;;3.77;;
12267;SDS011;6196;48.398;11.736;2023-07-29T02:19:37;5.17;;;4.00;;
12267;SDS011;6196;48.398;11.736;2023-07-29T02:22:04;6.77;;;4.13;;
12267;SDS011;6196;48.398;11.736;2023-07-29T02:24:31;4.93;;;4.30;;
12267;SDS011;6196;48.398;11.736;2023-07-29T02:26:57;4.67;;;4.27;;
12267;SDS011;6196;48.398;11.736;2023-07-29T02:29:24;5.53;;;4.30;;
12267;SDS011;6196;48.398;11.736;2023-07-29T02:31:51;7.37;;;4.80;;
12267;SDS011;6196;48.398;11.736;2023-07-29T02:34:18;7.27;;;4.63;;
12267;SDS011;6196;48.398;11.736;2023-07-29T02:36:45;6.83;;;4.47;;
12267;SDS011;6196;48.398;11.736;2023-07-29T02:39:12;4.73;;;3.47;;
12267;SDS011;6196;48.398;11.736;2023-07-29T02:41:39;4.30;;;3.90;;
12267;SDS011;6196;48.398;11.736;2023-07-29T02:44:06;5.60;;;3.70;;
12267;SDS011;6196;48.398;11.736;2023-07-29T02:46:33;4.53;;;3.60;;
12267;SDS011;6196;48.398;11.736;2023-07-29T02:49:04;6.37;;;4.20;;
12267;SDS011;6196;48.398;11.736;2023-07-29T02:51:31;5.70;;;4.27;;
12267;SDS011;6196;48.398;11.736;2023-07-29T02:53:58;5.03;;;4.40;;
12267;SDS011;6196;48.398;11.736;2023-07-29T02:56:25;4.17;;;3.77;;
12267;SDS011;6196;48.398;11.736;2023-07-29T02:58:52;5.90;;;4.10;;
12267;SDS011;6196;48.398;11.736;2023-07-29T03:01:19;5.80;;;4.10;;
12267;SDS011;6196;48.398;11.736;2023-07-29T03:03:46;4.33;;;3.90;;
12267;SDS011;6196;48.398;11.736;2023-07-29T03:06:14;4.57;;;3.70;;
12267;SDS011;6196;48.398;11.736;2023-07-29T03:08:41;4.53;;;4.13;;
12267;SDS011;6196;48.398;11.736;2023-07-29T03:11:09;5.10;;;3.80;;
12267;SDS011;6196;48.398;11.736;2023-07-29T03:13:39;3.17;;;2.57;;
12267;SDS011;6196;48.398;11.736;2023-07-29T03:16:12;2.70;;;2.30;;
12267;SDS011;6196;48.398;11.736;2023-07-29T03:18:44;4.53;;;3.03;;
12267;SDS011;6196;48.398;11.736;2023-07-29T03:21:11;3.07;;;2.77;;
12267;SDS011;6196;48.398;11.736;2023-07-29T03:23:38;4.97;;;3.90;;
12267;SDS011;6196;48.398;11.736;2023-07-29T03:26:05;4.77;;;4.30;;
12267;SDS011;6196;48.398;11.736;2023-07-29T03:28:37;5.40;;;4.17;;
12267;SDS011;6196;48.398;11.736;2023-07-29T03:31:09;6.00;;;4.73;;
12267;SDS011;6196;48.398;11.736;2023-07-29T03:33:37;6.63;;;4.53;;
12267;SDS011;6196;48.398;11.736;2023-07-29T03:36:04;4.53;;;3.93;;
12267;SDS011;6196;48.398;11.736;2023-07-29T03:38:31;4.87;;;4.47;;
12267;SDS011;6196;48.398;11.736;2023-07-29T03:41:01;5.17;;;4.67;;
12267;SDS011;6196;48.398;11.736;2023-07-29T03:43:29;4.87;;;4.10;;
12267;SDS011;6196;48.398;11.736;2023-07-29T03:45:56;5.93;;;4.90;;
12267;SDS011;6196;48.398;11.736;2023-07-29T03:48:23;5.30;;;4.33;;
12267;SDS011;6196;48.398;11.736;2023-07-29T03:50:50;5.20;;;4.70;;
12267;SDS011;6196;48.398;11.736;2023-07-29T03:53:17;4.93;;;4.40;;
12267;SDS011;6196;48.398;11.736;2023-07-29T03:55:44;5.63;;;5.13;;
12267;SDS011;6196;48.398;11.736;2023-07-29T03:58:11;6.60;;;4.67;;
12267;SDS011;6196;48.398;11.736;2023-07-29T04:00:38;6.47;;;4.90;;
12267;SDS011;6196;48.398;11.736;2023-07-29T04:03:05;6.20;;;5.00;;
12267;SDS011;6196;48.398;11.736;2023-07-29T04:05:32;5.60;;;4.67;;
12267;SDS011;6196;48.398;11.736;2023-07-29T04:07:59;5.13;;;4.60;;
12267;SDS011;6196;48.398;11.736;2023-07-29T04:10:26;6.80;;;4.27;;
12267;SDS011;6196;48.398;11.736;2023-07-29T04:12:53;5.50;;;4.73;;
12267;SDS011;6196;48.398;11.736;2023-07-29T04:15:20;4.30;;;3.90;;
12267;SDS011;6196;48.398;11.736;2023-07-29T04:17:50;5.63;;;4.07;;
12267;SDS011;6196;48.398;11.736;2023-07-29T04:20:17;4.60;;;4.20;;
12267;SDS011;6196;48.398;11.736;2023-07-29T04:22:44;4.30;;;3.90;;
12267;SDS011;6196;48.398;11.736;2023-07-29T04:25:11;4.90;;;4.40;;
12267;SDS011;6196;48.398;11.736;2023-07-29T04:27:39;6.00;;;4.37;;
12267;SDS011;6196;48.398;11.736;2023-07-29T04:30:06;5.30;;;4.43;;
12267;SDS011;6196;48.398;11.736;2023-07-29T04:32:34;4.93;;;4.47;;
12267;SDS011;6196;48.398;11.736;2023-07-29T04:35:00;4.80;;;4.10;;
12267;SDS011;6196;48.398;11.736;2023-07-29T04:37:28;6.00;;;4.37;;
12267;SDS011;6196;48.398;11.736;2023-07-29T04:39:55;6.57;;;4.67;;
12267;SDS011;6196;48.398;11.736;2023-07-29T04:42:22;4.70;;;3.97;;
12267;SDS011;6196;48.398;11.736;2023-07-29T04:44:51;5.27;;;3.93;;
12267;SDS011;6196;48.398;11.736;2023-07-29T04:47:18;4.17;;;3.77;;
12267;SDS011;6196;48.398;11.736;2023-07-29T04:49:45;7.60;;;4.10;;
12267;SDS011;6196;48.398;11.736;2023-07-29T04:52:12;5.17;;;4.67;;
12267;SDS011;6196;48.398;11.736;2023-07-29T04:54:41;4.67;;;4.00;;
12267;SDS011;6196;48.398;11.736;2023-07-29T04:57:08;4.70;;;3.50;;
12267;SDS011;6196;48.398;11.736;2023-07-29T04:59:35;4.23;;;3.33;;
12267;SDS011;6196;48.398;11.736;2023-07-29T05:02:03;4.80;;;3.70;;
12267;SDS011;6196;48.398;11.736;2023-07-29T05:04:30;4.97;;;3.70;;
12267;SDS011;6196;48.398;11.736;2023-07-29T05:06:57;4.60;;;3.20;;
12267;SDS011;6196;48.398;11.736;2023-07-29T05:09:24;3.83;;;3.53;;
12267;SDS011;6196;48.398;11.736;2023-07-29T05:11:54;4.37;;;3.97;;
12267;SDS011;6196;48.398;11.736;2023-07-29T05:14:20;3.80;;;3.50;;
12267;SDS011;6196;48.398;11.736;2023-07-29T05:16:47;4.23;;;3.83;;
12267;SDS011;6196;48.398;11.736;2023-07-29T05:19:15;4.60;;;3.70;;
12267;SDS011;6196;48.398;11.736;2023-07-29T05:21:42;4.10;;;3.70;;
12267;SDS011;6196;48.398;11.736;2023-07-29T05:24:09;5.47;;;3.70;;
12267;SDS011;6196;48.398;11.736;2023-07-29T05:26:36;4.10;;;3.70;;
12267;SDS011;6196;48.398;11.736;2023-07-29T05:29:03;4.13;;;3.73;;
12267;SDS011;6196;48.398;11.736;2023-07-29T05:31:30;4.90;;;3.70;;
12267;SDS011;6196;48.398;11.736;2023-07-29T05:33:57;3.73;;;3.40;;
12267;SDS011;6196;48.398;11.736;2023-07-29T05:36:25;5.13;;;3.70;;
12267;SDS011;6196;48.398;11.736;2023-07-29T05:38:52;5.50;;;3.10;;
12267;SDS011;6196;48.398;11.736;2023-07-29T05:41:19;4.20;;;3.10;;
12267;SDS011;6196;48.398;11.736;2023-07-29T05:43:46;3.90;;;3.60;;
12267;SDS011;6196;48.398;11.736;2023-07-29T05:46:13;3.37;;;3.07;;
12267;SDS011;6196;48.398;11.736;2023-07-29T05:48:40;3.60;;;2.90;;
12267;SDS011;6196;48.398;11.736;2023-07-29T05:51:07;3.60;;;3.30;;
12267;SDS011;6196;48.398;11.736;2023-07-29T05:53:34;5.50;;;2.97;;
12267;SDS011;6196;48.398;11.736;2023-07-29T05:56:01;3.37;;;2.70;;
12267;SDS011;6196;48.398;11.736;2023-07-29T05:58:28;6.43;;;3.00;;
12267;SDS011;6196;48.398;11.736;2023-07-29T06:00:57;3.53;;;2.87;;
12267;SDS011;6196;48.398;11.736;2023-07-29T06:03:24;3.00;;;2.70;;
12267;SDS011;6196;48.398;11.736;2023-07-29T06:05:51;4.33;;;2.97;;
12267;SDS011;6196;48.398;11.736;2023-07-29T06:08:20;5.23;;;2.90;;
12267;SDS011;6196;48.398;11.736;2023-07-29T06:10:47;3.90;;;2.80;;
12267;SDS011;6196;48.398;11.736;2023-07-29T06:13:14;4.90;;;2.90;;
12267;SDS011;6196;48.398;11.736;2023-07-29T06:15:41;3.37;;;2.40;;
12267;SDS011;6196;48.398;11.736;2023-07-29T06:18:08;2.80;;;2.50;;
12267;SDS011;6196;48.398;11.736;2023-07-29T06:20:35;3.47;;;2.77;;
12267;SDS011;6196;48.398;11.736;2023-07-29T06:23:02;4.37;;;2.73;;
12267;SDS011;6196;48.398;11.736;2023-07-29T06:25:30;5.27;;;2.70;;
12267;SDS011;6196;48.398;11.736;2023-07-29T06:27:57;3.10;;;2.80;;
12267;SDS011;6196;48.398;11.736;2023-07-29T06:30:24;3.43;;;2.83;;
12267;SDS011;6196;48.398;11.736;2023-07-29T06:32:52;4.77;;;2.80;;
12267;SDS011;6196;48.398;11.736;2023-07-29T06:35:19;3.10;;;2.70;;
12267;SDS011;6196;48.398;11.736;2023-07-29T06:37:46;4.43;;;2.60;;
12267;SDS011;6196;48.398;11.736;2023-07-29T06:40:13;2.87;;;2.50;;
12267;SDS011;6196;48.398;11.736;2023-07-29T06:42:40;2.40;;;2.20;;
12267;SDS011;6196;48.398;11.736;2023-07-29T06:45:07;3.67;;;2.73;;
12267;SDS011;6196;48.398;11.736;2023-07-29T06:47:34;3.53;;;2.40;;
12267;SDS011;6196;48.398;11.736;2023-07-29T06:50:01;2.20;;;2.10;;
12267;SDS011;6196;48.398;11.736;2023-07-29T06:52:28;2.63;;;2.20;;
12267;SDS011;6196;48.398;11.736;2023-07-29T06:54:55;2.80;;;2.30;;
12267;SDS011;6196;48.398;11.736;2023-07-29T06:57:22;5.13;;;2.40;;
12267;SDS011;6196;48.398;11.736;2023-07-29T06:59:49;3.10;;;2.40;;
12267;SDS011;6196;48.398;11.736;2023-07-29T07:02:16;5.23;;;2.47;;
12267;SDS011;6196;48.398;11.736;2023-07-29T07:04:43;3.90;;;2.20;;
12267;SDS011;6196;48.398;11.736;2023-07-29T07:07:10;2.33;;;2.03;;
12267;SDS011;6196;48.398;11.736;2023-07-29T07:09:37;2.80;;;2.40;;
12267;SDS011;6196;48.398;11.736;2023-07-29T07:12:04;5.30;;;2.53;;
12267;SDS011;6196;48.398;11.736;2023-07-29T07:14:31;5.73;;;2.87;;
12267;SDS011;6196;48.398;11.736;2023-07-29T07:16:58;5.90;;;2.90;;
12267;SDS011;6196;48.398;11.736;2023-07-29T07:19:25;5.70;;;2.70;;
12267;SDS011;6196;48.398;11.736;2023-07-29T07:21:52;3.90;;;2.87;;
12267;SDS011;6196;48.398;11.736;2023-07-29T07:24:19;7.67;;;2.50;;
12267;SDS011;6196;48.398;11.736;2023-07-29T07:26:46;4.73;;;3.07;;
12267;SDS011;6196;48.398;11.736;2023-07-29T07:29:13;2.63;;;2.20;;
12267;SDS011;6196;48.398;11.736;2023-07-29T07:31:40;3.67;;;2.47;;
12267;SDS011;6196;48.398;11.736;2023-07-29T07:34:07;2.77;;;2.37;;
12267;SDS011;6196;48.398;11.736;2023-07-29T07:36:34;2.83;;;2.37;;
12267;SDS011;6196;48.398;11.736;2023-07-29T07:39:01;3.40;;;2.40;;
12267;SDS011;6196;48.398;11.736;2023-07-29T07:41:28;3.70;;;2.17;;
12267;SDS011;6196;48.398;11.736;2023-07-29T07:43:55;2.10;;;1.87;;
12267;SDS011;6196;48.398;11.736;2023-07-29T07:46:22;4.10;;;2.40;;
12267;SDS011;6196;48.398;11.736;2023-07-29T07:48:50;2.57;;;2.33;;
12267;SDS011;6196;48.398;11.736;2023-07-29T07:51:16;4.83;;;2.47;;
12267;SDS011;6196;48.398;11.736;2023-07-29T07:53:43;3.07;;;2.70;;
12267;SDS011;6196;48.398;11.736;2023-07-29T07:56:10;4.97;;;2.73;;
12267;SDS011;6196;48.398;11.736;2023-07-29T07:58:39;4.30;;;2.43;;
12267;SDS011;6196;48.398;11.736;2023-07-29T08:01:07;3.57;;;2.73;;
12267;SDS011;6196;48.398;11.736;2023-07-29T08:03:35;3.50;;;2.60;;
12267;SDS011;6196;48.398;11.736;2023-07-29T08:06:02;2.93;;;2.63;;
12267;SDS011;6196;48.398;11.736;2023-07-29T08:08:29;3.67;;;2.80;;
12267;SDS011;6196;48.398;11.736;2023-07-29T08:10:56;3.27;;;2.93;;
12267;SDS011;6196;48.398;11.736;2023-07-29T08:13:24;3.63;;;3.00;;
12267;SDS011;6196;48.398;11.736;2023-07-29T08:15:51;3.27;;;2.90;;
12267;SDS011;6196;48.398;11.736;2023-07-29T08:18:19;4.73;;;2.47;;
12267;SDS011;6196;48.398;11.736;2023-07-29T08:20:57;4.13;;;2.50;;
12267;SDS011;6196;48.398;11.736;2023-07-29T08:23:29;3.73;;;2.43;;
12267;SDS011;6196;48.398;11.736;2023-07-29T08:25:58;4.00;;;2.70;;
12267;SDS011;6196;48.398;11.736;2023-07-29T08:28:28;4.13;;;2.80;;
12267;SDS011;6196;48.398;11.736;2023-07-29T08:30:57;2.67;;;2.47;;
12267;SDS011;6196;48.398;11.736;2023-07-29T08:33:24;4.80;;;2.70;;
12267;SDS011;6196;48.398;11.736;2023-07-29T08:35:51;2.90;;;2.60;;
12267;SDS011;6196;48.398;11.736;2023-07-29T08:38:19;2.87;;;2.30;;
12267;SDS011;6196;48.398;11.736;2023-07-29T08:40:51;3.37;;;3.07;;
12267;SDS011;6196;48.398;11.736;2023-07-29T08:43:50;3.13;;;2.47;;
12267;SDS011;6196;48.398;11.736;2023-07-29T08:46:25;2.90;;;2.70;;
12267;SDS011;6196;48.398;11.736;2023-07-29T08:48:53;2.93;;;2.60;;
12267;SDS011;6196;48.398;11.736;2023-07-29T08:51:21;3.10;;;2.50;;
12267;SDS011;6196;48.398;11.736;2023-07-29T08:53:49;2.83;;;2.53;;
12267;SDS011;6196;48.398;11.736;2023-07-29T08:56:16;3.33;;;2.77;;
12267;SDS011;6196;48.398;11.736;2023-07-29T08:58:43;2.50;;;2.00;;
12267;SDS011;6196;48.398;11.736;2023-07-29T09:01:14;4.07;;;2.50;;
12267;SDS011;6196;48.398;11.736;2023-07-29T09:03:42;2.90;;;2.53;;
12267;SDS011;6196;48.398;11.736;2023-07-29T09:06:09;3.27;;;2.90;;
12267;SDS011;6196;48.398;11.736;2023-07-29T09:08:37;2.90;;;2.60;;
12267;SDS011;6196;48.398;11.736;2023-07-29T09:11:04;2.73;;;2.53;;
12267;SDS011;6196;48.398;11.736;2023-07-29T09:13:32;2.70;;;2.50;;
12267;SDS011;6196;48.398;11.736;2023-07-29T09:15:59;3.10;;;2.37;;
12267;SDS011;6196;48.398;11.736;2023-07-29T09:18:26;2.93;;;2.60;;
12267;SDS011;6196;48.398;11.736;2023-07-29T09:20:54;4.77;;;2.83;;
12267;SDS011;6196;48.398;11.736;2023-07-29T09:23:32;4.23;;;2.83;;
12267;SDS011;6196;48.398;11.736;2023-07-29T09:26:07;3.27;;;2.80;;
12267;SDS011;6196;48.398;11.736;2023-07-29T09:28:35;2.90;;;2.50;;
12267;SDS011;6196;48.398;11.736;2023-07-29T09:31:05;3.10;;;2.80;;
12267;SDS011;6196;48.398;11.736;2023-07-29T09:33:42;2.60;;;2.40;;
12267;SDS011;6196;48.398;11.736;2023-07-29T09:36:09;3.30;;;3.00;;
12267;SDS011;6196;48.398;11.736;2023-07-29T09:38:36;3.60;;;2.87;;
12267;SDS011;6196;48.398;11.736;2023-07-29T09:41:04;3.93;;;3.20;;
12267;SDS011;6196;48.398;11.736;2023-07-29T09:43:31;3.17;;;2.80;;
12267;SDS011;6196;48.398;11.736;2023-07-29T09:46:04;4.40;;;3.03;;
12267;SDS011;6196;48.398;11.736;2023-07-29T09:48:34;4.57;;;3.13;;
12267;SDS011;6196;48.398;11.736;2023-07-29T09:51:11;4.33;;;3.13;;
12267;SDS011;6196;48.398;11.736;2023-07-29T09:53:42;3.23;;;2.93;;
12267;SDS011;6196;48.398;11.736;2023-07-29T09:56:16;3.77;;;3.37;;
12267;SDS011;6196;48.398;11.736;2023-07-29T09:58:43;3.27;;;2.97;;
12267;SDS011;6196;48.398;11.736;2023-07-29T10:01:12;4.93;;;3.20;;
12267;SDS011;6196;48.398;11.736;2023-07-29T10:03:40;3.67;;;3.13;;
12267;SDS011;6196;48.398;11.736;2023-07-29T10:06:08;3.87;;;3.13;;
12267;SDS011;6196;48.398;11.736;2023-07-29T10:08:37;4.40;;;2.90;;
12267;SDS011;6196;48.398;11.736;2023-07-29T10:11:06;3.30;;;3.00;;
12267;SDS011;6196;48.398;11.736;2023-07-29T10:13:36;4.57;;;3.20;;
12267;SDS011;6196;48.398;11.736;2023-07-29T10:16:04;3.70;;;3.10;;
12267;SDS011;6196;48.398;11.736;2023-07-29T10:18:32;3.30;;;3.00;;
12267;SDS011;6196;48.398;11.736;2023-07-29T10:21:00;4.23;;;3.10;;
12267;SDS011;6196;48.398;11.736;2023-07-29T10:23:32;3.50;;;3.20;;
12267;SDS011;6196;48.398;11.736;2023-07-29T10:26:05;4.03;;;3.73;;
12267;SDS011;6196;48.398;11.736;2023-07-29T10:28:38;3.47;;;3.17;;
12267;SDS011;6196;48.398;11.736;2023-07-29T10:31:08;3.07;;;2.77;;
12267;SDS011;6196;48.398;11.736;2023-07-29T10:33:35;3.60;;;2.93;;
12267;SDS011;6196;48.398;11.736;2023-07-29T10:36:03;4.10;;;2.93;;
12267;SDS011;6196;48.398;11.736;2023-07-29T10:38:31;3.70;;;3.17;;
12267;SDS011;6196;48.398;11.736;2023-07-29T10:40:58;3.47;;;3.17;;
12267;SDS011;6196;48.398;11.736;2023-07-29T10:48:55;3.73;;;2.20;;
12267;SDS011;6196;48.398;11.736;2023-07-29T10:51:24;3.60;;;1.77;;
12267;SDS011;6196;48.398;11.736;2023-07-29T10:53:57;3.73;;;2.43;;
12267;SDS011;6196;48.398;11.736;2023-07-29T10:56:30;4.80;;;2.47;;
12267;SDS011;6196;48.398;11.736;2023-07-29T11:01:50;15.83;;;4.00;;
12267;SDS011;6196;48.398;11.736;2023-07-29T11:04:28;7.90;;;2.93;;
12267;SDS011;6196;48.398;11.736;2023-07-29T11:17:56;5.03;;;2.40;;
12267;SDS011;6196;48.398;11.736;2023-07-29T11:20:32;5.00;;;2.37;;
12267;SDS011;6196;48.398;11.736;2023-07-29T11:23:00;4.00;;;2.40;;
12267;SDS011;6196;48.398;11.736;2023-07-29T11:25:30;3.27;;;2.57;;
12267;SDS011;6196;48.398;11.736;2023-07-29T11:27:58;4.13;;;2.43;;
12267;SDS011;6196;48.398;11.736;2023-07-29T11:30:29;4.53;;;2.83;;
12267;SDS011;6196;48.398;11.736;2023-07-29T11:32:57;3.03;;;2.70;;
12267;SDS011;6196;48.398;11.736;2023-07-29T11:35:25;3.33;;;2.60;;
12267;SDS011;6196;48.398;11.736;2023-07-29T11:37:53;4.17;;;2.70;;
12267;SDS011;6196;48.398;11.736;2023-07-29T11:40:22;4.30;;;2.67;;
12267;SDS011;6196;48.398;11.736;2023-07-29T11:42:51;3.20;;;2.33;;
12267;SDS011;6196;48.398;11.736;2023-07-29T11:45:19;3.50;;;2.60;;
12267;SDS011;6196;48.398;11.736;2023-07-29T11:47:51;6.17;;;2.80;;
12267;SDS011;6196;48.398;11.736;2023-07-29T11:50:18;3.00;;;2.63;;
12267;SDS011;6196;48.398;11.736;2023-07-29T11:52:45;2.90;;;2.53;;
12267;SDS011;6196;48.398;11.736;2023-07-29T11:55:13;4.37;;;3.27;;
12267;SDS011;6196;48.398;11.736;2023-07-29T11:57:42;3.63;;;3.10;;
12267;SDS011;6196;48.398;11.736;2023-07-29T12:00:10;5.67;;;3.23;;
12267;SDS011;6196;48.398;11.736;2023-07-29T12:02:39;6.57;;;3.30;;
12267;SDS011;6196;48.398;11.736;2023-07-29T12:05:10;3.27;;;2.83;;
12267;SDS011;6196;48.398;11.736;2023-07-29T12:07:39;3.90;;;2.87;;
12267;SDS011;6196;48.398;11.736;2023-07-29T12:10:10;3.60;;;3.13;;
12267;SDS011;6196;48.398;11.736;2023-07-29T12:12:44;2.80;;;2.50;;
12267;SDS011;6196;48.398;11.736;2023-07-29T12:15:22;3.20;;;2.90;;
12267;SDS011;6196;48.398;11.736;2023-07-29T12:17:54;3.37;;;3.07;;
12267;SDS011;6196;48.398;11.736;2023-07-29T12:20:24;3.47;;;2.73;;
12267;SDS011;6196;48.398;11.736;2023-07-29T12:22:52;4.13;;;2.60;;
12267;SDS011;6196;48.398;11.736;2023-07-29T12:25:21;3.00;;;2.63;;
12267;SDS011;6196;48.398;11.736;2023-07-29T12:27:48;3.42;;;2.80;;
12267;SDS011;6196;48.398;11.736;2023-07-29T12:30:16;3.88;;;2.70;;
12267;SDS011;6196;48.398;11.736;2023-07-29T12:32:51;4.30;;;3.00;;
12267;SDS011;6196;48.398;11.736;2023-07-29T12:35:18;4.07;;;3.20;;
12267;SDS011;6196;48.398;11.736;2023-07-29T12:37:46;6.53;;;2.77;;
12267;SDS011;6196;48.398;11.736;2023-07-29T12:40:26;3.80;;;2.60;;
12267;SDS011;6196;48.398;11.736;2023-07-29T12:42:53;3.27;;;2.97;;
12267;SDS011;6196;48.398;11.736;2023-07-29T12:45:21;3.67;;;3.00;;
12267;SDS011;6196;48.398;11.736;2023-07-29T12:47:53;3.10;;;2.90;;
12267;SDS011;6196;48.398;11.736;2023-07-29T12:50:22;3.40;;;3.10;;
12267;SDS011;6196;48.398;11.736;2023-07-29T12:52:49;4.43;;;2.90;;
12267;SDS011;6196;48.398;11.736;2023-07-29T12:55:16;4.97;;;3.00;;
12267;SDS011;6196;48.398;11.736;2023-07-29T12:57:47;3.10;;;2.80;;
12267;SDS011;6196;48.398;11.736;2023-07-29T13:00:14;3.90;;;3.10;;
12267;SDS011;6196;48.398;11.736;2023-07-29T13:02:41;3.43;;;2.53;;
12267;SDS011;6196;48.398;11.736;2023-07-29T13:05:11;3.43;;;2.80;;
12267;SDS011;6196;48.398;11.736;2023-07-29T13:07:38;4.33;;;2.60;;
12267;SDS011;6196;48.398;11.736;2023-07-29T13:10:06;4.97;;;2.87;;
12267;SDS011;6196;48.398;11.736;2023-07-29T13:12:34;3.90;;;2.75;;
12267;SDS011;6196;48.398;11.736;2023-07-29T13:15:01;3.97;;;2.90;;
12267;SDS011;6196;48.398;11.736;2023-07-29T13:17:29;3.70;;;2.80;;
12267;SDS011;6196;48.398;11.736;2023-07-29T13:19:56;3.38;;;2.83;;
12267;SDS011;6196;48.398;11.736;2023-07-29T13:22:23;3.95;;;2.63;;
12267;SDS011;6196;48.398;11.736;2023-07-29T13:24:50;4.22;;;2.67;;
12267;SDS011;6196;48.398;11.736;2023-07-29T13:27:16;2.97;;;2.58;;
12267;SDS011;6196;48.398;11.736;2023-07-29T13:29:43;2.90;;;2.65;;
12267;SDS011;6196;48.398;11.736;2023-07-29T13:32:12;3.03;;;2.50;;
12267;SDS011;6196;48.398;11.736;2023-07-29T13:34:39;2.40;;;2.15;;
12267;SDS011;6196;48.398;11.736;2023-07-29T13:37:06;2.80;;;2.50;;
12267;SDS011;6196;48.398;11.736;2023-07-29T13:39:33;5.03;;;2.67;;
12267;SDS011;6196;48.398;11.736;2023-07-29T13:42:00;2.60;;;2.40;;
12267;SDS011;6196;48.398;11.736;2023-07-29T13:44:28;3.75;;;2.40;;
12267;SDS011;6196;48.398;11.736;2023-07-29T13:46:54;2.40;;;2.20;;
12267;SDS011;6196;48.398;11.736;2023-07-29T13:49:21;3.90;;;2.53;;
12267;SDS011;6196;48.398;11.736;2023-07-29T13:51:48;3.42;;;2.33;;
12267;SDS011;6196;48.398;11.736;2023-07-29T13:54:15;2.65;;;2.40;;
12267;SDS011;6196;48.398;11.736;2023-07-29T13:56:43;2.25;;;2.13;;
12267;SDS011;6196;48.398;11.736;2023-07-29T13:59:10;2.88;;;2.65;;
12267;SDS011;6196;48.398;11.736;2023-07-29T14:01:37;2.85;;;2.63;;
12267;SDS011;6196;48.398;11.736;2023-07-29T14:04:05;2.42;;;2.20;;
12267;SDS011;6196;48.398;11.736;2023-07-29T14:06:32;2.92;;;2.63;;
12267;SDS011;6196;48.398;11.736;2023-07-29T14:09:11;3.00;;;2.50;;
12267;SDS011;6196;48.398;11.736;2023-07-29T14:11:38;2.97;;;2.30;;
12267;SDS011;6196;48.398;11.736;2023-07-29T14:14:05;3.40;;;2.33;;
12267;SDS011;6196;48.398;11.736;2023-07-29T14:16:33;2.65;;;2.22;;
12267;SDS011;6196;48.398;11.736;2023-07-29T14:19:01;4.13;;;2.10;;
12267;SDS011;6196;48.398;11.736;2023-07-29T14:21:28;5.07;;;2.20;;
12267;SDS011;6196;48.398;11.736;2023-07-29T14:23:55;2.42;;;2.05;;
12267;SDS011;6196;48.398;11.736;2023-07-29T14:26:21;2.05;;;1.85;;
12267;SDS011;6196;48.398;11.736;2023-07-29T14:28:48;1.60;;;1.50;;
12267;SDS011;6196;48.398;11.736;2023-07-29T14:31:16;2.23;;;1.70;;
12267;SDS011;6196;48.398;11.736;2023-07-29T14:33:43;5.73;;;1.77;;
12267;SDS011;6196;48.398;11.736;2023-07-29T14:36:10;1.80;;;1.43;;
12267;SDS011;6196;48.398;11.736;2023-07-29T14:38:37;2.10;;;1.60;;
12267;SDS011;6196;48.398;11.736;2023-07-29T14:41:04;1.40;;;1.07;;
12267;SDS011;6196;48.398;11.736;2023-07-29T14:43:31;1.63;;;1.53;;
12267;SDS011;6196;48.398;11.736;2023-07-29T14:45:58;2.63;;;1.67;;
12267;SDS011;6196;48.398;11.736;2023-07-29T14:48:25;1.60;;;1.30;;
12267;SDS011;6196;48.398;11.736;2023-07-29T14:50:52;1.77;;;1.20;;
12267;SDS011;6196;48.398;11.736;2023-07-29T14:53:19;2.13;;;1.60;;
12267;SDS011;6196;48.398;11.736;2023-07-29T14:55:46;3.60;;;1.70;;
12267;SDS011;6196;48.398;11.736;2023-07-29T14:58:13;2.10;;;1.63;;
12267;SDS011;6196;48.398;11.736;2023-07-29T15:00:40;1.97;;;1.77;;
12267;SDS011;6196;48.398;11.736;2023-07-29T15:03:07;1.67;;;1.57;;
12267;SDS011;6196;48.398;11.736;2023-07-29T15:05:35;2.40;;;1.80;;
12267;SDS011;6196;48.398;11.736;2023-07-29T15:08:02;2.83;;;1.87;;
12267;SDS011;6196;48.398;11.736;2023-07-29T15:10:28;2.70;;;1.67;;
12267;SDS011;6196;48.398;11.736;2023-07-29T15:12:55;1.90;;;1.80;;
12267;SDS011;6196;48.398;11.736;2023-07-29T15:15:24;1.83;;;1.63;;
12267;SDS011;6196;48.398;11.736;2023-07-29T15:17:50;3.57;;;2.37;;
12267;SDS011;6196;48.398;11.736;2023-07-29T15:20:17;2.63;;;2.37;;